La Belle Poule — FBPU — position and weather

sailwx.info

Track history (hours):
 
Tides and Currents Weather Stations Pressure Air Temp Water Temp Dewpoint Dewpoint Depression Visibility Wind Speed Wind Dir Waves Ship Positions

La Belle Poule (France)

Ship's website: http://www.defense.gouv.fr/english/portail-defense

Last reported at 2019-Feb-14 17:10 UTC. Time now 2019-Feb-16 03:16 UTC.
Position N 48°23' W 004°30'.

Length 37 m; draft 3.6 m.

Type: Sailing vessel. MMSI: 228796000.

Date/timePositionNaut miles runAvg speedWind from/ knotsBaromVisibWave heightAir tempDewpointWater temp
2019-Feb-14 17:10N 48°23' W 004°30'0 0.0
2019-Feb-14 16:59N 48°23' W 004°30'0 0.0
2019-Feb-14 16:31N 48°23' W 004°30'0 0.0
2019-Feb-14 16:00N 48°23' W 004°30'0 0.0
2019-Feb-14 15:31N 48°23' W 004°30'0 0.0
2019-Feb-14 15:00N 48°23' W 004°30'2 3.4
2019-Feb-14 14:31N 48°21' W 004°29'1 1.9
2019-Feb-14 14:00N 48°21' W 004°30'1 2.0
2019-Feb-14 13:31N 48°22' W 004°30'0 0.6
2019-Feb-14 13:00N 48°22' W 004°29'1 2.3
2019-Feb-14 12:30N 48°23' W 004°30'0 0.0
2019-Feb-14 12:00N 48°23' W 004°30'0 0.0
2019-Feb-14 11:31N 48°23' W 004°30'0 0.0
2019-Feb-14 11:00N 48°23' W 004°30'0 0.0
2019-Feb-14 10:30N 48°23' W 004°30'0 0.0
2019-Feb-14 10:01N 48°23' W 004°30'1 2.0
2019-Feb-14 09:30N 48°22' W 004°31'1 0.1
2019-Feb-13 17:13N 48°23' W 004°30'0 0.0
2019-Feb-13 17:01N 48°23' W 004°30'0 0.0
2019-Feb-13 16:30N 48°23' W 004°30'0 0.0
2019-Feb-13 16:01N 48°23' W 004°30'0 0.0
2019-Feb-13 15:30N 48°23' W 004°30'0 0.0
2019-Feb-13 15:00N 48°23' W 004°30'1 1.1
2019-Feb-13 14:31N 48°22' W 004°29'1 2.3
2019-Feb-13 14:00N 48°22' W 004°31'1 2.0
2019-Feb-13 13:31N 48°21' W 004°29'0 0.7
2019-Feb-13 13:00N 48°22' W 004°30'1 2.7
2019-Feb-13 12:29N 48°23' W 004°30'0 0.0
2019-Feb-13 11:58N 48°23' W 004°30'0 0.0
2019-Feb-13 11:30N 48°23' W 004°30'0 0.0
2019-Feb-13 10:59N 48°23' W 004°30'0 0.3
2019-Feb-13 10:24N 48°23' W 004°30'1 3.2
2019-Feb-13 10:00N 48°22' W 004°29'1 2.2
2019-Feb-13 09:30N 48°21' W 004°30'1 2.1
2019-Feb-13 09:00N 48°21' W 004°29'1 2.4
2019-Feb-13 08:30N 48°21' W 004°30'1 2.8
2019-Feb-13 08:00N 48°22' W 004°29'1 0.1
2019-Feb-12 15:29N 48°23' W 004°30'0 0.5
2019-Feb-12 14:54N 48°23' W 004°30'1 2.9
2019-Feb-12 14:30N 48°22' W 004°29'2 5.0
2019-Feb-12 14:01N 48°19' W 004°28'2 3.9
2019-Feb-12 13:30N 48°18' W 004°26'1 1.9
2019-Feb-12 13:00N 48°17' W 004°25'0 0.1
2019-Feb-12 12:30N 48°17' W 004°25'0 0.0
2019-Feb-12 12:00N 48°17' W 004°25'0 0.0
2019-Feb-12 11:30N 48°17' W 004°25'0 0.0
2019-Feb-12 11:00N 48°17' W 004°25'0 0.0
2019-Feb-12 10:30N 48°17' W 004°25'2 3.7
2019-Feb-12 10:01N 48°19' W 004°26'2 4.9
2019-Feb-12 09:30N 48°21' W 004°29'3 6.0
2019-Feb-12 09:01N 48°23' W 004°26'1 2.9
2019-Feb-12 08:30N 48°23' W 004°28'2 4.3
2019-Feb-12 07:59N 48°22' W 004°31'1 1.5
2019-Feb-12 07:03N 48°23' W 004°30'0 0.1
2019-Feb-12 06:57N 48°23' W 004°30'0 0.0
2019-Feb-11 15:20N 48°23' W 004°30'0 0.0
2019-Feb-11 14:50N 48°23' W 004°30'0 1.2
2019-Feb-11 14:30N 48°23' W 004°30'1 2.9
2019-Feb-11 14:01N 48°21' W 004°30'0 0.7
2019-Feb-11 13:30N 48°21' W 004°30'0 0.6
2019-Feb-11 13:00N 48°22' W 004°30'1 2.3
2019-Feb-11 12:29N 48°23' W 004°30'0 0.0
2019-Feb-11 12:00N 48°23' W 004°30'0 0.0
2019-Feb-11 11:16N 48°23' W 004°30'0 0.0
2019-Feb-11 10:56N 48°23' W 004°30'0 0.4
2019-Feb-11 10:30N 48°23' W 004°30'1 1.6
2019-Feb-11 10:01N 48°22' W 004°30'1 1.5
2019-Feb-11 09:30N 48°21' W 004°30'1 1.1
2019-Feb-11 09:00N 48°21' W 004°30'1 1.4
2019-Feb-11 08:30N 48°21' W 004°31'2 4.0
2019-Feb-11 07:59N 48°22' W 004°30'0 0.7
2019-Feb-11 07:15N 48°23' W 004°30'0 0.0
2019-Feb-11 06:55N 48°23' W 004°30'  
2019-Feb-07 19:08N 48°23' W 004°30'0 0.0
2019-Feb-07 17:59N 48°23' W 004°30'0 0.0
2019-Feb-07 17:13N 48°23' W 004°30'0 0.0
2019-Feb-07 16:16N 48°23' W 004°30'0 0.0
2019-Feb-07 15:45N 48°23' W 004°30'0 0.3
2019-Feb-07 15:16N 48°23' W 004°30'1 5.3
2019-Feb-07 15:00N 48°22' W 004°29'3 5.7
2019-Feb-07 14:30N 48°19' W 004°27'2 3.8
2019-Feb-07 14:00N 48°18' W 004°25'0 0.9
2019-Feb-07 13:30N 48°17' W 004°25'0 0.0
2019-Feb-07 13:01N 48°17' W 004°25'0 0.0
2019-Feb-07 12:30N 48°17' W 004°25'0 0.0
2019-Feb-07 12:00N 48°17' W 004°25'0 0.0
2019-Feb-07 11:30N 48°17' W 004°25'0 0.6
2019-Feb-07 11:00N 48°18' W 004°25'0 0.1
2019-Feb-07 10:30N 48°18' W 004°25'2 3.8
2019-Feb-07 10:01N 48°19' W 004°27'1 2.1
2019-Feb-07 09:30N 48°19' W 004°25'1 2.2
2019-Feb-07 09:01N 48°18' W 004°25'2 4.5
2019-Feb-07 08:30N 48°19' W 004°28'3 6.6
2019-Feb-07 08:00N 48°22' W 004°29'1 0.0
2019-Feb-06 16:16N 48°23' W 004°29'0 0.7
2019-Feb-06 15:58N 48°23' W 004°29'2 3.3
2019-Feb-06 15:30N 48°21' W 004°29'1 2.6
2019-Feb-06 15:01N 48°20' W 004°28'3 5.2
2019-Feb-06 14:30N 48°22' W 004°30'0 0.9
2019-Feb-06 14:00N 48°23' W 004°30'0 0.4
2019-Feb-06 13:26N 48°23' W 004°30'0 0.1
2019-Feb-06 12:56N 48°23' W 004°30'0 0.0
2019-Feb-06 12:30N 48°23' W 004°30'0 0.0
2019-Feb-06 11:59N 48°23' W 004°30'0 0.0
2019-Feb-06 11:30N 48°23' W 004°30'0 0.2
2019-Feb-06 10:54N 48°23' W 004°30'1 2.9
2019-Feb-06 10:30N 48°22' W 004°30'0 0.9
2019-Feb-06 10:00N 48°21' W 004°30'1 2.0
2019-Feb-06 09:30N 48°21' W 004°29'1 1.3
2019-Feb-06 09:00N 48°22' W 004°29'1 1.4
2019-Feb-06 08:30N 48°23' W 004°29'0 0.0
2019-Feb-05 18:43N 48°23' W 004°29'0 0.0
2019-Feb-05 18:29N 48°23' W 004°29'0 0.0
2019-Feb-05 17:18N 48°23' W 004°29'0 0.0
2019-Feb-05 16:42N 48°23' W 004°29'0 0.0
2019-Feb-05 16:00N 48°23' W 004°29'1 1.2
2019-Feb-05 15:30N 48°22' W 004°30'2 4.0
2019-Feb-05 15:01N 48°21' W 004°28'1 1.7
2019-Feb-05 14:31N 48°20' W 004°29'2 3.3
2019-Feb-05 14:00N 48°19' W 004°31'2 3.8
2019-Feb-05 13:30N 48°19' W 004°29'2 3.3
2019-Feb-05 13:00N 48°18' W 004°27'1 1.1
2019-Feb-05 12:30N 48°18' W 004°26'0 0.0
2019-Feb-05 12:00N 48°18' W 004°26'0 0.0
2019-Feb-05 11:31N 48°18' W 004°26'0 0.0
2019-Feb-05 11:00N 48°18' W 004°26'0 0.0
2019-Feb-05 10:30N 48°18' W 004°26'1 1.7
2019-Feb-05 10:00N 48°19' W 004°26'0 0.3
2019-Feb-05 09:30N 48°18' W 004°26'0 0.2
2019-Feb-05 09:01N 48°18' W 004°26'1 1.4
2019-Feb-05 08:31N 48°19' W 004°25'2 4.9
2019-Feb-05 08:00N 48°18' W 004°29'1 2.2
2019-Feb-05 07:30N 48°18' W 004°30'0 0.0
2019-Feb-05 07:00N 48°18' W 004°30'0 0.0
2019-Feb-05 06:30N 48°18' W 004°30'0 0.0
2019-Feb-05 06:00N 48°18' W 004°30'0 0.0
2019-Feb-05 05:30N 48°18' W 004°30'0 0.0
2019-Feb-05 05:00N 48°18' W 004°30'0 0.0
2019-Feb-05 04:30N 48°18' W 004°30'0 0.0
2019-Feb-05 04:01N 48°18' W 004°30'0 0.0
2019-Feb-05 03:30N 48°18' W 004°30'0 0.0
2019-Feb-05 03:00N 48°18' W 004°30'0 0.0
2019-Feb-05 02:30N 48°18' W 004°30'0 0.0
2019-Feb-05 02:00N 48°18' W 004°30'0 0.0
2019-Feb-05 01:30N 48°18' W 004°30'0 0.0
2019-Feb-05 01:01N 48°18' W 004°30'0 0.0
2019-Feb-05 00:30N 48°18' W 004°30'0 0.0
2019-Feb-05 00:00N 48°18' W 004°30'0 0.0
2019-Feb-04 23:31N 48°18' W 004°30'0 0.0
2019-Feb-04 23:00N 48°18' W 004°30'0 0.0
2019-Feb-04 22:30N 48°18' W 004°30'0 0.0
2019-Feb-04 22:00N 48°18' W 004°30'0 0.0
2019-Feb-04 21:30N 48°18' W 004°30'0 0.0
2019-Feb-04 21:01N 48°18' W 004°30'0 0.0
2019-Feb-04 20:30N 48°18' W 004°30'0 0.0
2019-Feb-04 20:00N 48°18' W 004°30'0 0.0
2019-Feb-04 19:30N 48°18' W 004°30'0 0.0
2019-Feb-04 19:00N 48°18' W 004°30'0 0.0
2019-Feb-04 18:30N 48°18' W 004°30'0 0.0
2019-Feb-04 18:00N 48°18' W 004°30'0 0.0
2019-Feb-04 17:30N 48°18' W 004°30'  
Track history (hours):
 
Tides and Currents Weather Stations Pressure Air Temp Water Temp Dewpoint Dewpoint Depression Visibility Wind Speed Wind Dir Waves Ship Positions

La Belle Poule (France)

Ship's website: http://www.defense.gouv.fr/english/portail-defense

Last reported at 2019-Feb-14 17:10 UTC. Time now 2019-Feb-16 03:16 UTC.
Position N 48°23' W 004°30'.

Length 37 m; draft 3.6 m.

Type: Sailing vessel. MMSI: 228796000.

Date/timePositionNaut miles runAvg speedWind from/ knotsBaromVisibWave heightAir tempDewpointWater temp
2019-Feb-14 17:10N 48°23' W 004°30'0 0.0
2019-Feb-14 16:59N 48°23' W 004°30'0 0.0
2019-Feb-14 16:31N 48°23' W 004°30'0 0.0
2019-Feb-14 16:00N 48°23' W 004°30'0 0.0
2019-Feb-14 15:31N 48°23' W 004°30'0 0.0
2019-Feb-14 15:00N 48°23' W 004°30'2 3.4
2019-Feb-14 14:31N 48°21' W 004°29'1 1.9
2019-Feb-14 14:00N 48°21' W 004°30'1 2.0
2019-Feb-14 13:31N 48°22' W 004°30'0 0.6
2019-Feb-14 13:00N 48°22' W 004°29'1 2.3
2019-Feb-14 12:30N 48°23' W 004°30'0 0.0
2019-Feb-14 12:00N 48°23' W 004°30'0 0.0
2019-Feb-14 11:31N 48°23' W 004°30'0 0.0
2019-Feb-14 11:00N 48°23' W 004°30'0 0.0
2019-Feb-14 10:30N 48°23' W 004°30'0 0.0
2019-Feb-14 10:01N 48°23' W 004°30'1 2.0
2019-Feb-14 09:30N 48°22' W 004°31'1 0.1
2019-Feb-13 17:13N 48°23' W 004°30'0 0.0
2019-Feb-13 17:01N 48°23' W 004°30'0 0.0
2019-Feb-13 16:30N 48°23' W 004°30'0 0.0
2019-Feb-13 16:01N 48°23' W 004°30'0 0.0
2019-Feb-13 15:30N 48°23' W 004°30'0 0.0
2019-Feb-13 15:00N 48°23' W 004°30'1 1.1
2019-Feb-13 14:31N 48°22' W 004°29'1 2.3
2019-Feb-13 14:00N 48°22' W 004°31'1 2.0
2019-Feb-13 13:31N 48°21' W 004°29'0 0.7
2019-Feb-13 13:00N 48°22' W 004°30'1 2.7
2019-Feb-13 12:29N 48°23' W 004°30'0 0.0
2019-Feb-13 11:58N 48°23' W 004°30'0 0.0
2019-Feb-13 11:30N 48°23' W 004°30'0 0.0
2019-Feb-13 10:59N 48°23' W 004°30'0 0.3
2019-Feb-13 10:24N 48°23' W 004°30'1 3.2
2019-Feb-13 10:00N 48°22' W 004°29'1 2.2
2019-Feb-13 09:30N 48°21' W 004°30'1 2.1
2019-Feb-13 09:00N 48°21' W 004°29'1 2.4
2019-Feb-13 08:30N 48°21' W 004°30'1 2.8
2019-Feb-13 08:00N 48°22' W 004°29'1 0.1
2019-Feb-12 15:29N 48°23' W 004°30'0 0.5
2019-Feb-12 14:54N 48°23' W 004°30'1 2.9
2019-Feb-12 14:30N 48°22' W 004°29'2 5.0
2019-Feb-12 14:01N 48°19' W 004°28'2 3.9
2019-Feb-12 13:30N 48°18' W 004°26'1 1.9
2019-Feb-12 13:00N 48°17' W 004°25'0 0.1
2019-Feb-12 12:30N 48°17' W 004°25'0 0.0
2019-Feb-12 12:00N 48°17' W 004°25'0 0.0
2019-Feb-12 11:30N 48°17' W 004°25'0 0.0
2019-Feb-12 11:00N 48°17' W 004°25'0 0.0
2019-Feb-12 10:30N 48°17' W 004°25'2 3.7
2019-Feb-12 10:01N 48°19' W 004°26'2 4.9
2019-Feb-12 09:30N 48°21' W 004°29'3 6.0
2019-Feb-12 09:01N 48°23' W 004°26'1 2.9
2019-Feb-12 08:30N 48°23' W 004°28'2 4.3
2019-Feb-12 07:59N 48°22' W 004°31'1 1.5
2019-Feb-12 07:03N 48°23' W 004°30'0 0.1
2019-Feb-12 06:57N 48°23' W 004°30'0 0.0
2019-Feb-11 15:20N 48°23' W 004°30'0 0.0
2019-Feb-11 14:50N 48°23' W 004°30'0 1.2
2019-Feb-11 14:30N 48°23' W 004°30'1 2.9
2019-Feb-11 14:01N 48°21' W 004°30'0 0.7
2019-Feb-11 13:30N 48°21' W 004°30'0 0.6
2019-Feb-11 13:00N 48°22' W 004°30'1 2.3
2019-Feb-11 12:29N 48°23' W 004°30'0 0.0
2019-Feb-11 12:00N 48°23' W 004°30'0 0.0
2019-Feb-11 11:16N 48°23' W 004°30'0 0.0
2019-Feb-11 10:56N 48°23' W 004°30'0 0.4
2019-Feb-11 10:30N 48°23' W 004°30'1 1.6
2019-Feb-11 10:01N 48°22' W 004°30'1 1.5
2019-Feb-11 09:30N 48°21' W 004°30'1 1.1
2019-Feb-11 09:00N 48°21' W 004°30'1 1.4
2019-Feb-11 08:30N 48°21' W 004°31'2 4.0
2019-Feb-11 07:59N 48°22' W 004°30'0 0.7
2019-Feb-11 07:15N 48°23' W 004°30'0 0.0
2019-Feb-11 06:55N 48°23' W 004°30'  
2019-Feb-07 19:08N 48°23' W 004°30'0 0.0
2019-Feb-07 17:59N 48°23' W 004°30'0 0.0
2019-Feb-07 17:13N 48°23' W 004°30'0 0.0
2019-Feb-07 16:16N 48°23' W 004°30'0 0.0
2019-Feb-07 15:45N 48°23' W 004°30'0 0.3
2019-Feb-07 15:16N 48°23' W 004°30'1 5.3
2019-Feb-07 15:00N 48°22' W 004°29'3 5.7
2019-Feb-07 14:30N 48°19' W 004°27'2 3.8
2019-Feb-07 14:00N 48°18' W 004°25'0 0.9
2019-Feb-07 13:30N 48°17' W 004°25'0 0.0
2019-Feb-07 13:01N 48°17' W 004°25'0 0.0
2019-Feb-07 12:30N 48°17' W 004°25'0 0.0
2019-Feb-07 12:00N 48°17' W 004°25'0 0.0
2019-Feb-07 11:30N 48°17' W 004°25'0 0.6
2019-Feb-07 11:00N 48°18' W 004°25'0 0.1
2019-Feb-07 10:30N 48°18' W 004°25'2 3.8
2019-Feb-07 10:01N 48°19' W 004°27'1 2.1
2019-Feb-07 09:30N 48°19' W 004°25'1 2.2
2019-Feb-07 09:01N 48°18' W 004°25'2 4.5
2019-Feb-07 08:30N 48°19' W 004°28'3 6.6
2019-Feb-07 08:00N 48°22' W 004°29'1 0.0
2019-Feb-06 16:16N 48°23' W 004°29'0 0.7
2019-Feb-06 15:58N 48°23' W 004°29'2 3.3
2019-Feb-06 15:30N 48°21' W 004°29'1 2.6
2019-Feb-06 15:01N 48°20' W 004°28'3 5.2
2019-Feb-06 14:30N 48°22' W 004°30'0 0.9
2019-Feb-06 14:00N 48°23' W 004°30'0 0.4
2019-Feb-06 13:26N 48°23' W 004°30'0 0.1
2019-Feb-06 12:56N 48°23' W 004°30'0 0.0
2019-Feb-06 12:30N 48°23' W 004°30'0 0.0
2019-Feb-06 11:59N 48°23' W 004°30'0 0.0
2019-Feb-06 11:30N 48°23' W 004°30'0 0.2
2019-Feb-06 10:54N 48°23' W 004°30'1 2.9
2019-Feb-06 10:30N 48°22' W 004°30'0 0.9
2019-Feb-06 10:00N 48°21' W 004°30'1 2.0
2019-Feb-06 09:30N 48°21' W 004°29'1 1.3
2019-Feb-06 09:00N 48°22' W 004°29'1 1.4
2019-Feb-06 08:30N 48°23' W 004°29'0 0.0
2019-Feb-05 18:43N 48°23' W 004°29'0 0.0
2019-Feb-05 18:29N 48°23' W 004°29'0 0.0
2019-Feb-05 17:18N 48°23' W 004°29'0 0.0
2019-Feb-05 16:42N 48°23' W 004°29'0 0.0
2019-Feb-05 16:00N 48°23' W 004°29'1 1.2
2019-Feb-05 15:30N 48°22' W 004°30'2 4.0
2019-Feb-05 15:01N 48°21' W 004°28'1 1.7
2019-Feb-05 14:31N 48°20' W 004°29'2 3.3
2019-Feb-05 14:00N 48°19' W 004°31'2 3.8
2019-Feb-05 13:30N 48°19' W 004°29'2 3.3
2019-Feb-05 13:00N 48°18' W 004°27'1 1.1
2019-Feb-05 12:30N 48°18' W 004°26'0 0.0
2019-Feb-05 12:00N 48°18' W 004°26'0 0.0
2019-Feb-05 11:31N 48°18' W 004°26'0 0.0
2019-Feb-05 11:00N 48°18' W 004°26'0 0.0
2019-Feb-05 10:30N 48°18' W 004°26'1 1.7
2019-Feb-05 10:00N 48°19' W 004°26'0 0.3
2019-Feb-05 09:30N 48°18' W 004°26'0 0.2
2019-Feb-05 09:01N 48°18' W 004°26'1 1.4
2019-Feb-05 08:31N 48°19' W 004°25'2 4.9
2019-Feb-05 08:00N 48°18' W 004°29'1 2.2
2019-Feb-05 07:30N 48°18' W 004°30'0 0.0
2019-Feb-05 07:00N 48°18' W 004°30'0 0.0
2019-Feb-05 06:30N 48°18' W 004°30'0 0.0
2019-Feb-05 06:00N 48°18' W 004°30'0 0.0
2019-Feb-05 05:30N 48°18' W 004°30'0 0.0
2019-Feb-05 05:00N 48°18' W 004°30'0 0.0
2019-Feb-05 04:30N 48°18' W 004°30'0 0.0
2019-Feb-05 04:01N 48°18' W 004°30'0 0.0
2019-Feb-05 03:30N 48°18' W 004°30'0 0.0
2019-Feb-05 03:00N 48°18' W 004°30'0 0.0
2019-Feb-05 02:30N 48°18' W 004°30'0 0.0
2019-Feb-05 02:00N 48°18' W 004°30'0 0.0
2019-Feb-05 01:30N 48°18' W 004°30'0 0.0
2019-Feb-05 01:01N 48°18' W 004°30'0 0.0
2019-Feb-05 00:30N 48°18' W 004°30'0 0.0
2019-Feb-05 00:00N 48°18' W 004°30'0 0.0
2019-Feb-04 23:31N 48°18' W 004°30'0 0.0
2019-Feb-04 23:00N 48°18' W 004°30'0 0.0
2019-Feb-04 22:30N 48°18' W 004°30'0 0.0
2019-Feb-04 22:00N 48°18' W 004°30'0 0.0
2019-Feb-04 21:30N 48°18' W 004°30'0 0.0
2019-Feb-04 21:01N 48°18' W 004°30'0 0.0
2019-Feb-04 20:30N 48°18' W 004°30'0 0.0
2019-Feb-04 20:00N 48°18' W 004°30'0 0.0
2019-Feb-04 19:30N 48°18' W 004°30'0 0.0
2019-Feb-04 19:00N 48°18' W 004°30'0 0.0
2019-Feb-04 18:30N 48°18' W 004°30'0 0.0
2019-Feb-04 18:00N 48°18' W 004°30'0 0.0
2019-Feb-04 17:30N 48°18' W 004°30'  

Dump ship's entire track history